createdAt,value
2022-10-15T00:00:17.865Z,17.47
2022-10-15T00:02:44.356Z,17.47
2022-10-15T00:05:10.908Z,17.45
2022-10-15T00:07:37.488Z,17.44
2022-10-15T00:10:04.298Z,17.45
2022-10-15T00:12:30.857Z,17.44
2022-10-15T00:14:57.402Z,17.41
2022-10-15T00:17:24.345Z,17.43
2022-10-15T00:19:51.146Z,17.44
2022-10-15T00:22:17.871Z,17.42
2022-10-15T00:24:44.421Z,17.44
2022-10-15T00:27:10.931Z,17.45
2022-10-15T00:29:37.448Z,17.46
2022-10-15T00:32:04.027Z,17.42
2022-10-15T00:34:30.805Z,17.42
2022-10-15T00:36:57.326Z,17.41
2022-10-15T00:39:24.071Z,17.42
2022-10-15T00:41:50.626Z,17.37
2022-10-15T00:44:26.801Z,17.34
2022-10-15T00:47:17.921Z,17.32
2022-10-15T00:49:55.453Z,17.29
2022-10-15T00:52:37.289Z,17.26
2022-10-15T00:55:12.520Z,17.26
2022-10-15T00:57:40.355Z,17.27
2022-10-15T01:00:11.255Z,17.25
2022-10-15T01:02:38.071Z,17.27
2022-10-15T01:05:05.478Z,17.28
2022-10-15T01:07:31.985Z,17.27
2022-10-15T01:09:58.705Z,17.29
2022-10-15T01:12:25.445Z,17.26
2022-10-15T01:15:05.306Z,17.25
2022-10-15T01:17:48.133Z,17.24
2022-10-15T01:20:31.791Z,17.22
2022-10-15T01:23:07.434Z,17.22
2022-10-15T01:25:55.835Z,17.21
2022-10-15T01:28:53.020Z,17.21
2022-10-15T01:31:42.078Z,17.20
2022-10-15T01:34:25.172Z,17.18
2022-10-15T01:37:03.885Z,17.18
2022-10-15T01:39:59.478Z,17.15
2022-10-15T01:42:36.119Z,17.13
2022-10-15T01:45:07.650Z,17.08
2022-10-15T01:47:37.996Z,17.08
2022-10-15T01:50:06.784Z,17.07
2022-10-15T01:52:37.433Z,17.06
2022-10-15T01:55:07.093Z,17.02
2022-10-15T01:57:35.041Z,17.01
2022-10-15T02:00:04.632Z,16.97
2022-10-15T02:02:31.139Z,16.96
2022-10-15T02:04:57.787Z,16.93
2022-10-15T02:07:57.017Z,16.87
2022-10-15T02:10:52.896Z,16.85
2022-10-15T02:13:40.836Z,16.80
2022-10-15T02:16:41.666Z,16.80
2022-10-15T02:19:32.222Z,16.73
2022-10-15T02:22:09.055Z,16.73
2022-10-15T02:24:41.796Z,16.72
2022-10-15T02:27:11.017Z,16.71
2022-10-15T02:29:40.090Z,16.71
2022-10-15T02:32:08.420Z,16.71
2022-10-15T02:34:36.468Z,16.68
2022-10-15T02:37:05.016Z,16.66
2022-10-15T02:39:32.026Z,16.63
2022-10-15T02:41:58.789Z,16.61
2022-10-15T02:44:25.415Z,16.59
2022-10-15T02:46:51.973Z,16.55
2022-10-15T02:49:18.502Z,16.50
2022-10-15T02:51:45.028Z,16.45
2022-10-15T02:54:11.902Z,16.42
2022-10-15T02:56:39.523Z,16.40
2022-10-15T02:59:06.832Z,16.38
2022-10-15T03:01:34.281Z,16.35
2022-10-15T03:04:01.771Z,16.35
2022-10-15T03:06:28.398Z,16.37
2022-10-15T03:08:54.919Z,16.36
2022-10-15T03:11:21.462Z,16.30
2022-10-15T03:13:47.982Z,16.27
2022-10-15T03:16:14.595Z,16.23
2022-10-15T03:18:41.329Z,16.24
2022-10-15T03:21:08.164Z,16.21
2022-10-15T03:23:34.865Z,16.19
2022-10-15T03:26:01.908Z,16.19
2022-10-15T03:28:28.479Z,16.17
2022-10-15T03:30:55.262Z,16.17
2022-10-15T03:33:24.381Z,16.16
2022-10-15T03:35:52.826Z,16.16
2022-10-15T03:38:19.788Z,16.15
2022-10-15T03:40:46.701Z,16.14
2022-10-15T03:43:13.332Z,16.13
2022-10-15T03:45:40.036Z,16.12
2022-10-15T03:48:06.822Z,16.11
2022-10-15T03:50:33.395Z,16.11
2022-10-15T03:53:02.314Z,16.11
2022-10-15T03:55:28.851Z,16.09
2022-10-15T03:57:55.357Z,16.06
2022-10-15T04:00:21.963Z,16.04
2022-10-15T04:02:48.500Z,16.03
2022-10-15T04:05:15.168Z,16.02
2022-10-15T04:07:42.822Z,16.04
2022-10-15T04:10:09.705Z,16.02
2022-10-15T04:12:36.265Z,16.02
2022-10-15T04:15:03.175Z,16.01
2022-10-15T04:17:29.691Z,16.01
2022-10-15T04:19:56.202Z,16.01
2022-10-15T04:22:23.072Z,16.01
2022-10-15T04:24:50.011Z,16.02
2022-10-15T04:27:16.581Z,16.01
2022-10-15T04:29:43.135Z,16.01
2022-10-15T04:32:16.346Z,16.01
2022-10-15T04:34:43.177Z,16.01
2022-10-15T04:37:09.665Z,16.02
2022-10-15T04:39:36.178Z,16.04
2022-10-15T04:42:02.766Z,16.04
2022-10-15T04:44:29.366Z,16.06
2022-10-15T04:46:55.863Z,16.05
2022-10-15T04:49:22.455Z,16.07
2022-10-15T04:51:49.133Z,16.08
2022-10-15T04:54:15.747Z,16.11
2022-10-15T04:56:42.359Z,16.23
2022-10-15T04:59:09.739Z,16.34
2022-10-15T05:01:36.367Z,16.45
2022-10-15T05:04:03.044Z,16.43
2022-10-15T05:06:29.559Z,16.41
2022-10-15T05:08:56.061Z,16.47
2022-10-15T05:11:26.273Z,16.52
2022-10-15T05:13:56.191Z,16.58
2022-10-15T05:16:25.594Z,16.63
2022-10-15T05:18:56.184Z,16.69
2022-10-15T05:21:22.744Z,16.78
2022-10-15T05:23:50.323Z,16.86
2022-10-15T05:26:25.077Z,16.80
2022-10-15T05:28:52.481Z,16.83
2022-10-15T05:31:21.590Z,16.88
2022-10-15T05:33:49.831Z,16.92
2022-10-15T05:36:20.561Z,16.92
2022-10-15T05:38:53.105Z,16.86
2022-10-15T05:41:20.979Z,16.93
2022-10-15T05:43:49.071Z,16.97
2022-10-15T05:46:15.726Z,17.00
2022-10-15T05:48:42.639Z,17.07
2022-10-15T05:51:12.881Z,17.10
2022-10-15T05:53:40.529Z,17.12
2022-10-15T05:56:08.478Z,17.15
2022-10-15T05:58:37.474Z,17.19
2022-10-15T06:01:08.161Z,17.22
2022-10-15T06:03:35.746Z,17.23
2022-10-15T06:06:02.386Z,17.26
2022-10-15T06:08:30.523Z,17.29
2022-10-15T06:11:06.761Z,17.33
2022-10-15T06:13:37.917Z,17.35
2022-10-15T06:16:04.916Z,17.31
2022-10-15T06:18:31.902Z,17.19
2022-10-15T06:20:58.427Z,17.08
2022-10-15T06:23:24.962Z,17.00
2022-10-15T06:25:51.591Z,16.93
2022-10-15T06:28:18.370Z,16.89
2022-10-15T06:30:45.097Z,16.84
2022-10-15T06:35:44.072Z,16.75
2022-10-15T06:38:10.931Z,16.75
2022-10-15T06:40:38.879Z,16.71
2022-10-15T06:43:08.143Z,16.69
2022-10-15T06:45:37.184Z,16.64
2022-10-15T06:48:05.115Z,16.60
2022-10-15T06:50:40.840Z,16.58
2022-10-15T06:53:08.312Z,16.60
2022-10-15T06:55:35.471Z,16.60
2022-10-15T06:58:02.060Z,16.60
2022-10-15T07:00:28.836Z,16.58
2022-10-15T07:02:55.458Z,16.54
2022-10-15T07:05:22.185Z,16.51
2022-10-15T07:07:52.645Z,16.48
2022-10-15T07:12:50.782Z,16.50
2022-10-15T07:15:17.884Z,16.52
2022-10-15T07:17:52.298Z,16.48
2022-10-15T07:20:22.025Z,16.49
2022-10-15T07:22:51.052Z,16.49
2022-10-15T07:25:17.857Z,16.50
2022-10-15T07:27:44.691Z,16.50
2022-10-15T07:30:11.692Z,16.50
2022-10-15T07:32:38.332Z,16.54
2022-10-15T07:35:05.317Z,16.57
2022-10-15T07:37:32.897Z,16.61
2022-10-15T07:39:59.495Z,16.64
2022-10-15T07:42:26.389Z,16.67
2022-10-15T07:44:53.059Z,16.76
2022-10-15T07:47:19.923Z,16.85
2022-10-15T07:49:46.484Z,16.93
2022-10-15T07:52:13.151Z,17.02
2022-10-15T07:54:39.776Z,17.10
2022-10-15T07:57:09.251Z,17.14
2022-10-15T07:59:36.007Z,17.20
2022-10-15T08:02:02.781Z,17.24
2022-10-15T08:04:29.459Z,17.29
2022-10-15T08:06:56.058Z,17.35
2022-10-15T08:09:22.798Z,17.40
2022-10-15T08:11:49.351Z,17.41
2022-10-15T08:14:15.877Z,17.49
2022-10-15T08:16:42.430Z,17.58
2022-10-15T08:19:08.972Z,17.66
2022-10-15T08:21:35.493Z,17.67
2022-10-15T08:24:02.101Z,17.71
2022-10-15T08:26:28.714Z,17.74
2022-10-15T08:28:55.335Z,17.77
2022-10-15T08:31:21.943Z,17.79
2022-10-15T08:33:48.559Z,17.82
2022-10-15T08:36:15.147Z,17.82
2022-10-15T08:38:41.742Z,17.81
2022-10-15T08:41:26.684Z,17.84
2022-10-15T08:43:53.519Z,17.88
2022-10-15T08:46:25.416Z,17.87
2022-10-15T08:48:56.237Z,17.84
2022-10-15T08:51:28.501Z,17.82
2022-10-15T08:54:02.371Z,17.82
2022-10-15T08:56:39.293Z,17.84
2022-10-15T08:59:36.889Z,17.88
2022-10-15T09:02:17.519Z,17.90
2022-10-15T09:04:58.964Z,17.92
2022-10-15T09:07:54.354Z,17.96
2022-10-15T09:10:30.375Z,17.96
2022-10-15T09:13:16.452Z,17.95
2022-10-15T09:15:58.134Z,17.95
2022-10-15T09:18:28.793Z,17.96
2022-10-15T09:20:57.498Z,17.95
2022-10-15T09:23:27.468Z,17.93
2022-10-15T09:26:06.851Z,17.92
2022-10-15T09:28:43.570Z,17.92
2022-10-15T09:31:13.554Z,17.95
2022-10-15T09:33:45.317Z,17.98
2022-10-15T09:36:33.510Z,18.02
2022-10-15T09:39:21.665Z,18.12
2022-10-15T09:42:09.835Z,18.14
2022-10-15T09:44:41.956Z,18.21
2022-10-15T09:47:15.390Z,18.16
2022-10-15T09:49:42.877Z,18.19
2022-10-15T09:52:21.972Z,18.14
2022-10-15T09:55:19.034Z,18.10
2022-10-15T09:57:51.646Z,18.11
2022-10-15T10:00:18.326Z,18.10
2022-10-15T10:02:44.918Z,18.04
2022-10-15T10:05:28.453Z,18.01
2022-10-15T10:08:24.275Z,18.03
2022-10-15T10:10:55.939Z,18.05
2022-10-15T10:13:32.869Z,18.06
2022-10-15T10:16:06.371Z,18.09
2022-10-15T10:18:33.201Z,18.07
2022-10-15T10:21:02.355Z,18.09
2022-10-15T10:23:31.986Z,18.10
2022-10-15T10:25:59.849Z,18.10
2022-10-15T10:28:32.845Z,18.03
2022-10-15T10:31:03.941Z,17.95
2022-10-15T10:33:52.288Z,17.90
2022-10-15T10:36:28.506Z,17.87
2022-10-15T10:39:28.962Z,17.85
2022-10-15T10:42:15.996Z,17.91
2022-10-15T10:44:46.932Z,17.95
2022-10-15T10:47:15.362Z,17.97
2022-10-15T10:49:46.740Z,18.00
2022-10-15T10:52:37.780Z,17.97
2022-10-15T10:55:18.043Z,17.98
2022-10-15T10:57:59.509Z,17.98
2022-10-15T11:00:32.503Z,17.96
2022-10-15T11:02:59.475Z,17.95
2022-10-15T11:05:29.263Z,17.98
2022-10-15T11:08:11.067Z,18.01
2022-10-15T11:11:04.676Z,18.02
2022-10-15T11:13:43.942Z,18.13
2022-10-15T11:16:21.269Z,18.14
2022-10-15T11:19:13.728Z,18.14
2022-10-15T11:21:58.689Z,18.16
2022-10-15T11:24:48.471Z,18.17
2022-10-15T11:27:52.895Z,18.18
2022-10-15T11:30:55.218Z,18.20
2022-10-15T11:33:24.447Z,18.23
2022-10-15T11:36:23.782Z,18.23
2022-10-15T11:39:37.446Z,18.19
2022-10-15T11:42:32.487Z,18.20
2022-10-15T11:45:28.835Z,18.27
2022-10-15T11:48:22.503Z,18.37
2022-10-15T11:51:00.694Z,18.44
2022-10-15T11:53:53.839Z,18.42
2022-10-15T11:56:28.604Z,18.48
2022-10-15T11:59:02.923Z,18.47
2022-10-15T12:01:50.016Z,18.53
2022-10-15T12:04:32.578Z,18.68
2022-10-15T12:07:02.484Z,18.78
2022-10-15T12:09:35.168Z,18.81
2022-10-15T12:12:20.455Z,18.82
2022-10-15T12:15:14.040Z,18.83
2022-10-15T12:17:54.387Z,18.74
2022-10-15T12:20:23.328Z,18.82
2022-10-15T12:22:52.830Z,18.87
2022-10-15T12:25:34.834Z,18.91
2022-10-15T12:28:03.977Z,18.91
2022-10-15T12:30:37.182Z,18.92
2022-10-15T12:33:23.085Z,18.94
2022-10-15T12:35:59.010Z,18.94
2022-10-15T12:38:33.296Z,19.01
2022-10-15T12:41:10.531Z,19.02
2022-10-15T12:43:41.957Z,19.06
2022-10-15T12:46:11.107Z,19.09
2022-10-15T12:48:46.232Z,19.08
2022-10-15T12:51:31.555Z,19.07
2022-10-15T12:54:00.351Z,19.08
2022-10-15T12:56:39.463Z,19.09
2022-10-15T12:59:50.137Z,19.09
2022-10-15T13:02:49.655Z,19.11
2022-10-15T13:05:35.908Z,19.10
2022-10-15T13:08:14.854Z,19.11
2022-10-15T13:10:57.098Z,19.15
2022-10-15T13:13:25.203Z,19.16
2022-10-15T13:15:57.091Z,19.24
2022-10-15T13:18:24.690Z,19.15
2022-10-15T13:20:54.658Z,19.17
2022-10-15T13:23:31.403Z,19.11
2022-10-15T13:26:20.446Z,19.04
2022-10-15T13:28:49.270Z,19.01
2022-10-15T13:31:27.520Z,19.00
2022-10-15T13:34:16.328Z,18.98
2022-10-15T13:36:45.082Z,18.97
2022-10-15T13:42:24.198Z,18.89
2022-10-15T13:45:01.632Z,18.94
2022-10-15T13:47:32.723Z,18.98
2022-10-15T13:50:24.400Z,19.01
2022-10-15T13:53:05.788Z,19.10
2022-10-15T13:55:36.417Z,19.21
2022-10-15T13:58:24.979Z,19.20
2022-10-15T14:01:00.957Z,19.22
2022-10-15T14:03:30.693Z,19.18
2022-10-15T14:06:07.910Z,19.11
2022-10-15T14:08:36.357Z,19.03
2022-10-15T14:11:03.450Z,18.98
2022-10-15T14:13:29.997Z,18.94
2022-10-15T14:16:42.441Z,18.89
2022-10-15T14:19:12.009Z,18.91
2022-10-15T14:21:44.676Z,18.91
2022-10-15T14:24:16.496Z,18.94
2022-10-15T14:26:44.359Z,18.93
2022-10-15T14:29:25.009Z,18.89
2022-10-15T14:31:51.614Z,18.86
2022-10-15T14:34:38.868Z,18.82
2022-10-15T14:37:36.510Z,18.76
2022-10-15T14:40:23.270Z,18.70
2022-10-15T14:43:05.069Z,18.69
2022-10-15T14:45:53.325Z,18.68
2022-10-15T14:48:24.715Z,18.65
2022-10-15T14:50:51.324Z,18.67
2022-10-15T14:53:21.825Z,18.73
2022-10-15T14:56:03.094Z,18.75
2022-10-15T14:58:30.749Z,18.76
2022-10-15T15:00:59.584Z,18.79
2022-10-15T15:03:31.909Z,18.84
2022-10-15T15:05:58.539Z,18.85
2022-10-15T15:08:26.068Z,18.87
2022-10-15T15:10:56.306Z,18.84
2022-10-15T15:13:27.969Z,18.87
2022-10-15T15:15:54.953Z,18.87
2022-10-15T15:18:21.559Z,18.82
2022-10-15T15:20:50.646Z,18.78
2022-10-15T15:23:23.865Z,18.72
2022-10-15T15:25:52.286Z,18.67
2022-10-15T15:28:21.551Z,18.69
2022-10-15T15:31:05.539Z,18.71
2022-10-15T15:33:33.314Z,18.74
2022-10-15T15:36:09.793Z,18.79
2022-10-15T15:41:12.471Z,18.86
2022-10-15T15:43:39.359Z,18.88
2022-10-15T15:46:06.179Z,18.88
2022-10-15T15:48:32.827Z,18.86
2022-10-15T15:51:02.658Z,18.81
2022-10-15T15:53:29.593Z,18.78
2022-10-15T15:55:56.147Z,18.77
2022-10-15T15:58:22.662Z,18.76
2022-10-15T16:00:49.231Z,18.74
2022-10-15T16:03:15.779Z,18.71
2022-10-15T16:05:42.689Z,18.67
2022-10-15T16:08:10.443Z,18.61
2022-10-15T16:10:37.043Z,18.56
2022-10-15T16:13:03.785Z,18.53
2022-10-15T16:15:30.339Z,18.50
2022-10-15T16:17:56.878Z,18.44
2022-10-15T16:20:23.410Z,18.38
2022-10-15T16:22:53.719Z,18.34
2022-10-15T16:25:22.530Z,18.30
2022-10-15T16:27:51.786Z,18.25
2022-10-15T16:30:19.323Z,18.17
2022-10-15T16:32:46.167Z,18.10
2022-10-15T16:35:12.745Z,18.06
2022-10-15T16:37:39.302Z,18.03
2022-10-15T16:40:06.562Z,17.98
2022-10-15T16:42:33.073Z,17.96
2022-10-15T16:44:59.578Z,17.90
2022-10-15T16:47:26.294Z,17.87
2022-10-15T16:49:55.506Z,17.84
2022-10-15T16:52:22.220Z,17.81
2022-10-15T16:54:48.941Z,17.77
2022-10-15T16:57:15.445Z,17.74
2022-10-15T16:59:41.986Z,17.70
2022-10-15T17:02:09.908Z,17.66
2022-10-15T17:04:36.493Z,17.62
2022-10-15T17:07:03.027Z,17.59
2022-10-15T17:09:29.670Z,17.58
2022-10-15T17:11:56.167Z,17.57
2022-10-15T17:14:22.668Z,17.57
2022-10-15T17:16:51.587Z,17.58
2022-10-15T17:19:23.542Z,17.54
2022-10-15T17:21:50.830Z,17.51
2022-10-15T17:24:19.330Z,17.52
2022-10-15T17:26:46.964Z,17.55
2022-10-15T17:29:20.699Z,17.57
2022-10-15T17:31:48.379Z,17.60
2022-10-15T17:34:14.969Z,17.62
2022-10-15T17:36:47.739Z,17.63
2022-10-15T17:39:17.883Z,17.62
2022-10-15T17:41:44.479Z,17.63
2022-10-15T17:44:11.872Z,17.63
2022-10-15T17:46:39.067Z,17.64
2022-10-15T17:49:06.277Z,17.61
2022-10-15T17:51:33.251Z,17.60
2022-10-15T17:54:00.403Z,17.60
2022-10-15T17:56:32.367Z,17.59
2022-10-15T17:59:00.688Z,17.59
2022-10-15T18:01:33.717Z,17.58
2022-10-15T18:04:12.928Z,17.57
2022-10-15T18:06:44.298Z,17.56
2022-10-15T18:09:10.841Z,17.54
2022-10-15T18:11:37.595Z,17.52
2022-10-15T18:14:04.111Z,17.52
2022-10-15T18:16:30.812Z,17.47
2022-10-15T18:18:57.389Z,17.48
2022-10-15T18:21:27.460Z,17.47
2022-10-15T18:23:56.520Z,17.49
2022-10-15T18:26:23.947Z,17.50
2022-10-15T18:28:52.204Z,17.48
2022-10-15T18:31:19.746Z,17.46
2022-10-15T18:33:49.191Z,17.45
2022-10-15T18:36:18.355Z,17.45
2022-10-15T18:38:45.183Z,17.48
2022-10-15T18:41:15.673Z,17.50
2022-10-15T18:43:42.375Z,17.54
2022-10-15T18:46:09.424Z,17.56
2022-10-15T18:48:38.851Z,17.58
2022-10-15T18:51:08.782Z,17.59
2022-10-15T18:53:39.527Z,17.56
2022-10-15T18:56:07.076Z,17.52
2022-10-15T18:58:33.871Z,17.49
2022-10-15T19:01:10.566Z,17.42
2022-10-15T19:03:37.266Z,17.43
2022-10-15T19:06:03.888Z,17.44
2022-10-15T19:08:31.137Z,17.40
2022-10-15T19:11:08.602Z,17.36
2022-10-15T19:13:36.289Z,17.35
2022-10-15T19:16:04.504Z,17.35
2022-10-15T19:18:31.813Z,17.33
2022-10-15T19:20:58.405Z,17.29
2022-10-15T19:23:25.063Z,17.21
2022-10-15T19:25:52.075Z,17.17
2022-10-15T19:28:18.700Z,17.12
2022-10-15T19:31:03.254Z,17.04
2022-10-15T19:33:31.522Z,16.98
2022-10-15T19:35:58.484Z,16.94
2022-10-15T19:38:26.342Z,16.92
2022-10-15T19:40:53.682Z,16.91
2022-10-15T19:43:22.051Z,16.87
2022-10-15T19:45:49.075Z,16.79
2022-10-15T19:48:18.572Z,16.73
2022-10-15T19:50:46.731Z,16.66
2022-10-15T19:53:16.449Z,16.61
2022-10-15T19:55:44.147Z,16.59
2022-10-15T19:58:10.693Z,16.57
2022-10-15T20:00:37.253Z,16.56
2022-10-15T20:03:03.865Z,16.53
2022-10-15T20:05:30.429Z,16.55
2022-10-15T20:07:56.948Z,16.55
2022-10-15T20:10:26.022Z,16.57
2022-10-15T20:12:53.342Z,16.60
2022-10-15T20:15:20.056Z,16.58
2022-10-15T20:17:47.231Z,16.57
2022-10-15T20:20:13.723Z,16.57
2022-10-15T20:22:40.261Z,16.52
2022-10-15T20:25:07.268Z,16.49
2022-10-15T20:27:33.847Z,16.44
2022-10-15T20:30:00.360Z,16.39
2022-10-15T20:32:35.286Z,16.35
2022-10-15T20:35:04.217Z,16.30
2022-10-15T20:37:31.101Z,16.26
2022-10-15T20:42:29.251Z,16.19
2022-10-15T20:44:55.859Z,16.15
2022-10-15T20:47:24.053Z,16.16
2022-10-15T20:49:54.154Z,16.13
2022-10-15T20:52:22.583Z,16.12
2022-10-15T20:54:50.307Z,16.06
2022-10-15T20:57:16.842Z,16.04
2022-10-15T20:59:43.374Z,16.02
2022-10-15T21:02:09.957Z,16.02
2022-10-15T21:04:36.460Z,16.03
2022-10-15T21:07:02.981Z,15.99
2022-10-15T21:09:29.479Z,15.95
2022-10-15T21:11:56.022Z,15.93
2022-10-15T21:14:22.577Z,15.91
2022-10-15T21:16:49.152Z,15.90
2022-10-15T21:19:15.661Z,15.93
2022-10-15T21:21:42.159Z,15.92
2022-10-15T21:24:08.704Z,15.91
2022-10-15T21:26:35.185Z,15.91
2022-10-15T21:29:01.836Z,15.90
2022-10-15T21:31:28.535Z,15.91
2022-10-15T21:33:55.719Z,15.94
2022-10-15T21:36:27.199Z,15.95
2022-10-15T21:38:56.395Z,15.99
2022-10-15T21:41:24.476Z,16.02
2022-10-15T21:43:51.865Z,16.04
2022-10-15T21:46:19.026Z,16.08
2022-10-15T21:48:45.905Z,16.08
2022-10-15T21:51:17.861Z,16.09
2022-10-15T21:53:44.615Z,16.13
2022-10-15T21:56:11.275Z,16.19
2022-10-15T21:58:39.282Z,16.23
2022-10-15T22:01:23.449Z,16.21
2022-10-15T22:03:51.552Z,16.22
2022-10-15T22:06:19.339Z,16.23
2022-10-15T22:08:46.633Z,16.22
2022-10-15T22:11:15.779Z,16.22
2022-10-15T22:13:44.191Z,16.24
2022-10-15T22:16:11.640Z,16.27
2022-10-15T22:18:38.668Z,16.30
2022-10-15T22:21:15.943Z,16.32
2022-10-15T22:23:50.004Z,16.33
2022-10-15T22:26:18.603Z,16.37
2022-10-15T22:28:46.043Z,16.40
2022-10-15T22:31:15.123Z,16.42
2022-10-15T22:33:42.597Z,16.47
2022-10-15T22:36:18.023Z,16.47
2022-10-15T22:38:46.532Z,16.47
2022-10-15T22:41:13.918Z,16.45
2022-10-15T22:43:40.756Z,16.44
2022-10-15T22:46:07.906Z,16.40
2022-10-15T22:48:35.847Z,16.40
2022-10-15T22:51:03.855Z,16.40
2022-10-15T22:53:31.440Z,16.36
2022-10-15T22:56:02.307Z,16.35
2022-10-15T22:58:31.350Z,16.36
2022-10-15T23:01:11.159Z,16.38
2022-10-15T23:03:39.187Z,16.40
2022-10-15T23:06:06.438Z,16.39
2022-10-15T23:08:34.394Z,16.39
2022-10-15T23:11:12.761Z,16.38
2022-10-15T23:13:40.540Z,16.41
2022-10-15T23:16:07.136Z,16.44
2022-10-15T23:18:33.704Z,16.45
2022-10-15T23:21:11.375Z,16.47
2022-10-15T23:23:37.857Z,16.48
2022-10-15T23:26:04.362Z,16.46
2022-10-15T23:28:30.966Z,16.46
2022-10-15T23:30:57.535Z,16.47
2022-10-15T23:33:24.552Z,16.47
2022-10-15T23:36:04.513Z,16.43
2022-10-15T23:38:31.259Z,16.44
2022-10-15T23:41:07.318Z,16.43
2022-10-15T23:43:34.071Z,16.40
2022-10-15T23:46:00.853Z,16.41
2022-10-15T23:48:28.289Z,16.42
2022-10-15T23:50:59.258Z,16.43
2022-10-15T23:53:29.142Z,16.44
2022-10-15T23:55:55.703Z,16.46
2022-10-15T23:58:22.218Z,16.50
